createdAt,value
2022-12-17T00:00:31.830Z,12.20
2022-12-17T00:01:32.624Z,9.30
2022-12-17T00:02:32.185Z,11.70
2022-12-17T00:03:32.028Z,11.00
2022-12-17T00:04:31.763Z,10.10
2022-12-17T00:05:31.752Z,12.20
2022-12-17T00:06:31.764Z,10.20
2022-12-17T00:07:31.743Z,11.30
2022-12-17T00:08:31.766Z,12.50
2022-12-17T00:09:31.942Z,9.30
2022-12-17T00:10:31.963Z,11.40
2022-12-17T00:11:31.719Z,12.10
2022-12-17T00:12:31.971Z,10.10
2022-12-17T00:13:32.004Z,11.80
2022-12-17T00:14:32.181Z,10.10
2022-12-17T00:15:32.194Z,11.10
2022-12-17T00:16:32.265Z,11.10
2022-12-17T00:17:31.684Z,10.00
2022-12-17T00:18:31.708Z,11.50
2022-12-17T00:19:31.671Z,10.50
2022-12-17T00:20:31.677Z,10.70
2022-12-17T00:21:31.658Z,11.40
2022-12-17T00:22:31.656Z,9.60
2022-12-17T00:23:31.658Z,10.90
2022-12-17T00:24:32.059Z,10.70
2022-12-17T00:25:31.635Z,11.20
2022-12-17T00:26:31.637Z,11.10
2022-12-17T00:27:31.625Z,10.10
2022-12-17T00:28:31.665Z,12.50
2022-12-17T00:29:31.614Z,10.40
2022-12-17T00:30:31.613Z,12.60
2022-12-17T00:31:31.632Z,9.60
2022-12-17T00:32:31.598Z,11.70
2022-12-17T00:33:31.612Z,10.80
2022-12-17T00:34:31.623Z,11.50
2022-12-17T00:35:31.580Z,10.80
2022-12-17T00:36:31.719Z,11.40
2022-12-17T00:37:31.562Z,12.40
2022-12-17T00:38:31.569Z,11.00
2022-12-17T00:39:31.570Z,12.70
2022-12-17T00:40:31.549Z,11.80
2022-12-17T00:41:31.549Z,11.30
2022-12-17T00:42:31.550Z,13.50
2022-12-17T00:43:31.610Z,11.00
2022-12-17T00:44:31.550Z,12.60
2022-12-17T00:45:31.528Z,12.30
2022-12-17T00:46:31.581Z,9.60
2022-12-17T00:47:31.515Z,12.10
2022-12-17T00:48:31.514Z,10.90
2022-12-17T00:49:31.586Z,11.40
2022-12-17T00:50:31.546Z,12.20
2022-12-17T00:51:31.495Z,9.60
2022-12-17T00:52:31.495Z,10.70
2022-12-17T00:53:31.483Z,12.10
2022-12-17T00:54:31.486Z,10.30
2022-12-17T00:55:31.840Z,11.70
2022-12-17T00:56:31.461Z,9.40
2022-12-17T00:57:31.452Z,11.50
2022-12-17T00:58:31.851Z,11.80
2022-12-17T00:59:31.461Z,12.10
2022-12-17T01:00:31.538Z,9.50
2022-12-17T01:01:31.542Z,11.60
2022-12-17T01:02:31.506Z,10.90
2022-12-17T01:03:31.417Z,11.50
2022-12-17T01:04:31.895Z,11.10
2022-12-17T01:05:31.402Z,10.80
2022-12-17T01:06:31.449Z,12.90
2022-12-17T01:07:31.404Z,9.30
2022-12-17T01:08:31.404Z,12.00
2022-12-17T01:09:31.409Z,10.10
2022-12-17T01:10:31.386Z,12.10
2022-12-17T01:11:31.379Z,11.00
2022-12-17T01:12:31.367Z,9.80
2022-12-17T01:13:31.361Z,12.90
2022-12-17T01:14:31.395Z,9.90
2022-12-17T01:15:31.360Z,11.60
2022-12-17T01:16:31.448Z,10.50
2022-12-17T01:17:31.337Z,12.60
2022-12-17T01:18:31.825Z,10.80
2022-12-17T01:19:32.042Z,11.30
2022-12-17T01:20:31.334Z,12.20
2022-12-17T01:21:31.320Z,9.20
2022-12-17T01:22:31.324Z,12.00
2022-12-17T01:23:31.322Z,10.00
2022-12-17T01:24:31.391Z,11.40
2022-12-17T01:25:31.462Z,10.30
2022-12-17T01:26:31.302Z,10.20
2022-12-17T01:27:31.353Z,10.80
2022-12-17T01:28:31.318Z,9.40
2022-12-17T01:29:31.277Z,12.10
2022-12-17T01:30:31.319Z,10.30
2022-12-17T01:31:35.055Z,11.50
2022-12-17T01:32:31.258Z,12.00
2022-12-17T01:33:31.873Z,9.30
2022-12-17T01:34:31.929Z,12.10
2022-12-17T01:35:31.258Z,10.20
2022-12-17T01:36:31.250Z,12.00
2022-12-17T01:37:31.226Z,12.10
2022-12-17T01:38:31.245Z,10.10
2022-12-17T01:39:32.175Z,12.60
2022-12-17T01:40:31.237Z,10.90
2022-12-17T01:41:31.205Z,12.60
2022-12-17T01:42:31.205Z,10.80
2022-12-17T01:43:31.204Z,13.90
2022-12-17T01:44:31.213Z,11.10
2022-12-17T01:45:31.268Z,12.20
2022-12-17T01:46:31.953Z,14.00
2022-12-17T01:47:32.165Z,11.30
2022-12-17T01:48:31.222Z,14.40
2022-12-17T01:49:31.571Z,11.30
2022-12-17T01:50:31.221Z,12.40
2022-12-17T01:51:31.222Z,10.60
2022-12-17T01:52:32.200Z,11.50
2022-12-17T01:53:32.253Z,12.40
2022-12-17T01:54:32.010Z,10.70
2022-12-17T01:55:32.168Z,12.10
2022-12-17T01:56:32.636Z,11.10
2022-12-17T01:57:31.977Z,10.70
2022-12-17T01:58:31.227Z,14.40
2022-12-17T01:59:31.138Z,11.00
2022-12-17T02:00:31.246Z,13.30
2022-12-17T02:01:31.365Z,12.40
2022-12-17T02:02:31.464Z,13.30
2022-12-17T02:03:31.084Z,13.60
2022-12-17T02:04:31.329Z,11.90
2022-12-17T02:05:31.478Z,14.50
2022-12-17T02:06:31.085Z,11.30
2022-12-17T02:07:31.400Z,13.60
2022-12-17T02:08:31.115Z,14.40
2022-12-17T02:09:31.493Z,13.10
2022-12-17T02:10:31.570Z,18.20
2022-12-17T02:11:31.505Z,17.80
2022-12-17T02:12:31.104Z,18.90
2022-12-17T02:13:31.060Z,17.80
2022-12-17T02:14:31.611Z,20.60
2022-12-17T02:15:31.800Z,19.20
2022-12-17T02:16:31.974Z,18.50
2022-12-17T02:17:31.011Z,21.20
2022-12-17T02:18:31.959Z,16.00
2022-12-17T02:19:31.910Z,18.20
2022-12-17T02:20:32.038Z,16.90
2022-12-17T02:21:31.361Z,18.40
2022-12-17T02:22:31.581Z,19.20
2022-12-17T02:23:32.217Z,17.60
2022-12-17T02:24:31.951Z,20.90
2022-12-17T02:25:31.850Z,15.40
2022-12-17T02:26:31.016Z,19.80
2022-12-17T02:27:31.917Z,17.30
2022-12-17T02:28:31.814Z,20.00
2022-12-17T02:29:31.974Z,17.70
2022-12-17T02:30:31.875Z,16.40
2022-12-17T02:31:31.819Z,18.90
2022-12-17T02:32:31.944Z,16.70
2022-12-17T02:33:32.050Z,22.40
2022-12-17T02:34:31.752Z,19.50
2022-12-17T02:35:31.913Z,23.30
2022-12-17T02:36:30.922Z,19.10
2022-12-17T02:37:30.924Z,23.30
2022-12-17T02:38:30.924Z,22.70
2022-12-17T02:39:30.962Z,18.30
2022-12-17T02:40:30.940Z,21.90
2022-12-17T02:41:30.951Z,18.50
2022-12-17T02:42:31.087Z,20.10
2022-12-17T02:43:31.098Z,20.60
2022-12-17T02:44:31.100Z,16.60
2022-12-17T02:45:31.240Z,20.30
2022-12-17T02:46:31.188Z,16.10
2022-12-17T02:47:30.918Z,18.90
2022-12-17T02:48:30.840Z,19.50
2022-12-17T02:49:30.937Z,15.00
2022-12-17T02:50:30.957Z,19.50
2022-12-17T02:51:30.956Z,17.50
2022-12-17T02:52:34.914Z,21.40
2022-12-17T02:53:30.805Z,19.60
2022-12-17T02:54:30.796Z,19.40
2022-12-17T02:55:30.786Z,22.10
2022-12-17T02:56:30.805Z,16.10
2022-12-17T02:57:30.783Z,20.20
2022-12-17T02:58:30.783Z,15.80
2022-12-17T02:59:30.775Z,19.40
2022-12-17T03:00:31.424Z,17.90
2022-12-17T03:01:30.961Z,17.70
2022-12-17T03:02:30.917Z,16.60
2022-12-17T03:03:30.795Z,16.90
2022-12-17T03:04:30.764Z,18.60
2022-12-17T03:05:46.289Z,15.40
2022-12-17T03:06:30.793Z,19.10
2022-12-17T03:07:30.719Z,16.50
2022-12-17T03:08:30.719Z,19.70
2022-12-17T03:09:30.718Z,16.70
2022-12-17T03:10:30.704Z,18.60
2022-12-17T03:11:30.717Z,20.60
2022-12-17T03:12:30.869Z,16.40
2022-12-17T03:13:30.877Z,20.10
2022-12-17T03:14:30.685Z,15.40
2022-12-17T03:15:30.687Z,18.80
2022-12-17T03:16:37.085Z,18.90
2022-12-17T03:17:30.685Z,16.10
2022-12-17T03:18:30.692Z,19.30
2022-12-17T03:19:30.803Z,17.40
2022-12-17T03:20:30.697Z,17.70
2022-12-17T03:21:30.825Z,18.30
2022-12-17T03:22:30.944Z,16.50
2022-12-17T03:23:31.000Z,19.80
2022-12-17T03:24:31.055Z,16.30
2022-12-17T03:25:30.983Z,18.80
2022-12-17T03:26:30.683Z,17.60
2022-12-17T03:27:30.623Z,17.30
2022-12-17T03:28:30.602Z,17.60
2022-12-17T03:29:30.604Z,17.40
2022-12-17T03:30:35.536Z,18.60
2022-12-17T03:31:30.661Z,15.80
2022-12-17T03:32:30.587Z,19.40
2022-12-17T03:33:30.580Z,16.20
2022-12-17T03:34:30.569Z,20.90
2022-12-17T03:35:30.570Z,18.80
2022-12-17T03:36:30.575Z,17.70
2022-12-17T03:37:30.564Z,21.10
2022-12-17T03:38:30.545Z,18.40
2022-12-17T03:39:30.547Z,21.00
2022-12-17T03:40:30.549Z,21.70
2022-12-17T03:41:30.566Z,23.20
2022-12-17T03:42:30.590Z,23.80
2022-12-17T03:43:30.565Z,20.90
2022-12-17T03:44:30.641Z,24.20
2022-12-17T03:45:30.532Z,21.90
2022-12-17T03:46:30.617Z,18.80
2022-12-17T03:47:30.501Z,22.70
2022-12-17T03:48:30.494Z,17.60
2022-12-17T03:49:30.492Z,21.90
2022-12-17T03:50:30.473Z,18.40
2022-12-17T03:51:30.492Z,22.90
2022-12-17T03:52:30.468Z,22.10
2022-12-17T03:53:30.509Z,19.00
2022-12-17T03:54:30.460Z,23.10
2022-12-17T03:55:30.455Z,19.40
2022-12-17T03:56:30.459Z,21.90
2022-12-17T03:57:30.441Z,25.60
2022-12-17T03:58:30.446Z,20.90
2022-12-17T03:59:30.429Z,24.40
2022-12-17T04:00:30.418Z,20.30
2022-12-17T04:01:30.530Z,22.20
2022-12-17T04:02:30.611Z,25.40
2022-12-17T04:03:30.598Z,21.10
2022-12-17T04:04:30.421Z,24.50
2022-12-17T04:05:30.536Z,22.80
2022-12-17T04:06:30.427Z,21.10
2022-12-17T04:07:31.020Z,25.50
2022-12-17T04:08:30.384Z,21.00
2022-12-17T04:09:30.375Z,20.20
2022-12-17T04:10:30.373Z,25.20
2022-12-17T04:11:30.453Z,19.60
2022-12-17T04:12:30.364Z,24.10
2022-12-17T04:13:30.363Z,21.20
2022-12-17T04:14:30.359Z,26.70
2022-12-17T04:15:30.393Z,23.50
2022-12-17T04:16:30.480Z,23.90
2022-12-17T04:17:30.357Z,29.20
2022-12-17T04:18:30.327Z,23.70
2022-12-17T04:19:30.320Z,26.70
2022-12-17T04:20:30.324Z,25.90
2022-12-17T04:21:30.317Z,24.60
2022-12-17T04:22:30.329Z,29.50
2022-12-17T04:23:30.387Z,26.40
2022-12-17T04:24:30.331Z,23.00
2022-12-17T04:25:30.308Z,28.00
2022-12-17T04:26:31.148Z,23.10
2022-12-17T04:27:30.296Z,25.70
2022-12-17T04:28:30.535Z,26.80
2022-12-17T04:29:31.215Z,24.80
2022-12-17T04:30:30.265Z,27.60
2022-12-17T04:31:30.299Z,24.20
2022-12-17T04:32:35.046Z,29.70
2022-12-17T04:33:30.256Z,26.30
2022-12-17T04:34:30.233Z,27.90
2022-12-17T04:35:30.232Z,29.30
2022-12-17T04:36:30.225Z,24.00
2022-12-17T04:37:30.513Z,28.70
2022-12-17T04:38:30.512Z,29.10
2022-12-17T04:39:30.211Z,25.10
2022-12-17T04:40:30.602Z,30.00
2022-12-17T04:41:30.532Z,25.30
2022-12-17T04:42:30.212Z,25.70
2022-12-17T04:43:30.190Z,26.70
2022-12-17T04:44:30.181Z,22.90
2022-12-17T04:45:30.185Z,26.90
2022-12-17T04:46:30.224Z,22.80
2022-12-17T04:47:30.204Z,20.50
2022-12-17T04:48:30.170Z,24.20
2022-12-17T04:49:31.087Z,19.50
2022-12-17T04:50:30.146Z,24.00
2022-12-17T04:51:30.186Z,20.90
2022-12-17T04:52:30.237Z,19.60
2022-12-17T04:53:31.206Z,22.80
2022-12-17T04:54:31.105Z,19.30
2022-12-17T04:55:30.123Z,22.70
2022-12-17T04:56:30.135Z,19.50
2022-12-17T04:57:30.654Z,18.80
2022-12-17T04:58:30.120Z,23.50
2022-12-17T04:59:30.119Z,19.90
2022-12-17T05:00:30.096Z,18.60
2022-12-17T05:01:30.220Z,22.30
2022-12-17T05:02:30.204Z,18.90
2022-12-17T05:03:30.152Z,21.60
2022-12-17T05:04:30.072Z,19.90
2022-12-17T05:05:30.071Z,18.30
2022-12-17T05:06:30.060Z,21.60
2022-12-17T05:07:30.070Z,17.20
2022-12-17T05:08:30.059Z,20.40
2022-12-17T05:09:30.094Z,19.00
2022-12-17T05:10:30.058Z,17.40
2022-12-17T05:11:30.040Z,21.40
2022-12-17T05:12:30.077Z,16.90
2022-12-17T05:13:30.036Z,19.50
2022-12-17T05:14:30.024Z,17.70
2022-12-17T05:15:30.047Z,16.30
2022-12-17T05:16:30.111Z,20.70
2022-12-17T05:17:30.076Z,18.10
2022-12-17T05:18:29.994Z,21.20
2022-12-17T05:19:29.995Z,23.00
2022-12-17T05:20:29.981Z,21.80
2022-12-17T05:21:33.348Z,30.60
2022-12-17T05:22:29.980Z,24.70
2022-12-17T05:23:29.971Z,25.30
2022-12-17T05:24:29.952Z,33.70
2022-12-17T05:25:29.952Z,26.50
2022-12-17T05:26:29.953Z,26.70
2022-12-17T05:27:29.961Z,33.30
2022-12-17T05:28:29.940Z,26.90
2022-12-17T05:29:30.041Z,30.30
2022-12-17T05:30:29.922Z,31.90
2022-12-17T05:31:30.530Z,27.30
2022-12-17T05:32:29.936Z,30.50
2022-12-17T05:33:29.926Z,30.70
2022-12-17T05:34:29.919Z,26.90
2022-12-17T05:35:29.901Z,33.80
2022-12-17T05:36:29.909Z,27.40
2022-12-17T05:37:29.937Z,27.40
2022-12-17T05:38:30.306Z,33.80
2022-12-17T05:39:29.888Z,27.40
2022-12-17T05:40:29.889Z,29.10
2022-12-17T05:41:29.884Z,33.20
2022-12-17T05:42:29.885Z,26.90
2022-12-17T05:43:29.893Z,27.40
2022-12-17T05:44:29.855Z,33.10
2022-12-17T05:45:30.563Z,26.70
2022-12-17T05:46:29.913Z,33.60
2022-12-17T05:47:29.843Z,27.70
2022-12-17T05:48:29.886Z,26.20
2022-12-17T05:49:29.829Z,33.80
2022-12-17T05:50:29.851Z,26.70
2022-12-17T05:51:30.501Z,33.30
2022-12-17T05:52:30.199Z,28.80
2022-12-17T05:53:30.209Z,27.50
2022-12-17T05:54:30.210Z,33.90
2022-12-17T05:55:30.278Z,28.60
2022-12-17T05:56:29.788Z,27.80
2022-12-17T05:57:29.849Z,31.90
2022-12-17T05:58:29.787Z,27.00
2022-12-17T05:59:29.837Z,28.00
2022-12-17T06:00:29.765Z,33.60
2022-12-17T06:01:30.100Z,27.70
2022-12-17T06:02:30.735Z,32.10
2022-12-17T06:03:29.885Z,29.20
2022-12-17T06:04:29.745Z,26.90
2022-12-17T06:05:30.304Z,33.10
2022-12-17T06:06:29.935Z,28.30
2022-12-17T06:07:29.733Z,26.80
2022-12-17T06:08:29.814Z,34.80
2022-12-17T06:09:29.734Z,25.90
2022-12-17T06:10:29.913Z,26.70
2022-12-17T06:11:29.715Z,32.80
2022-12-17T06:12:29.711Z,27.60
2022-12-17T06:13:30.140Z,27.30
2022-12-17T06:14:30.150Z,31.10
2022-12-17T06:15:29.681Z,26.00
2022-12-17T06:16:30.434Z,32.80
2022-12-17T06:17:29.671Z,25.70
2022-12-17T06:18:29.698Z,25.10
2022-12-17T06:19:30.449Z,30.90
2022-12-17T06:20:29.690Z,27.80
2022-12-17T06:21:29.657Z,27.30
2022-12-17T06:22:29.869Z,30.70
2022-12-17T06:23:30.498Z,26.90
2022-12-17T06:24:29.656Z,32.90
2022-12-17T06:25:29.926Z,26.70
2022-12-17T06:26:29.818Z,30.40
2022-12-17T06:27:29.827Z,28.30
2022-12-17T06:28:29.675Z,28.10
2022-12-17T06:29:29.604Z,32.80
2022-12-17T06:30:29.594Z,25.10
2022-12-17T06:31:29.655Z,26.40
2022-12-17T06:32:29.583Z,30.10
2022-12-17T06:33:29.611Z,27.20
2022-12-17T06:34:29.871Z,26.20
2022-12-17T06:35:29.579Z,29.40
2022-12-17T06:36:30.292Z,28.10
2022-12-17T06:37:29.601Z,26.50
2022-12-17T06:38:29.699Z,31.70
2022-12-17T06:39:29.989Z,26.50
2022-12-17T06:40:30.404Z,29.60
2022-12-17T06:41:29.922Z,28.50
2022-12-17T06:42:29.587Z,25.00
2022-12-17T06:43:29.657Z,30.70
2022-12-17T06:44:29.550Z,24.30
2022-12-17T06:45:30.436Z,30.60
2022-12-17T06:46:29.553Z,24.60
2022-12-17T06:47:30.505Z,27.30
2022-12-17T06:48:29.997Z,28.40
2022-12-17T06:49:30.446Z,24.40
2022-12-17T06:50:29.704Z,25.10
2022-12-17T06:51:30.366Z,30.90
2022-12-17T06:52:30.535Z,25.70
2022-12-17T06:53:30.033Z,24.60
2022-12-17T06:54:30.344Z,29.70
2022-12-17T06:55:30.501Z,25.50
2022-12-17T06:56:29.473Z,24.80
2022-12-17T06:57:29.494Z,30.20
2022-12-17T06:58:29.473Z,24.10
2022-12-17T06:59:29.487Z,23.70
2022-12-17T07:00:29.693Z,30.60
2022-12-17T07:01:29.771Z,24.40
2022-12-17T07:02:29.828Z,22.90
2022-12-17T07:03:29.742Z,29.70
2022-12-17T07:04:29.717Z,25.00
2022-12-17T07:05:29.508Z,28.10
2022-12-17T07:06:29.497Z,26.00
2022-12-17T07:07:29.437Z,25.00
2022-12-17T07:08:29.898Z,26.90
2022-12-17T07:09:29.937Z,27.00
2022-12-17T07:10:30.136Z,23.20
2022-12-17T07:11:30.211Z,29.60
2022-12-17T07:12:30.166Z,24.40
2022-12-17T07:13:30.145Z,25.80
2022-12-17T07:14:29.465Z,29.40
2022-12-17T07:15:30.024Z,24.40
2022-12-17T07:16:30.316Z,24.30
2022-12-17T07:17:29.344Z,28.50
2022-12-17T07:18:30.344Z,22.60
2022-12-17T07:19:30.412Z,28.90
2022-12-17T07:20:30.152Z,24.40
2022-12-17T07:21:30.310Z,23.20
2022-12-17T07:22:30.212Z,28.60
2022-12-17T07:23:29.582Z,23.40
2022-12-17T07:24:29.544Z,24.50
2022-12-17T07:25:29.601Z,28.20
2022-12-17T07:26:30.343Z,25.10
2022-12-17T07:27:29.617Z,26.40
2022-12-17T07:28:29.420Z,26.20
2022-12-17T07:29:29.919Z,25.10
2022-12-17T07:30:30.229Z,28.60
2022-12-17T07:31:29.484Z,26.00
2022-12-17T07:32:29.279Z,24.20
2022-12-17T07:33:29.266Z,31.50
2022-12-17T07:34:29.868Z,24.50
2022-12-17T07:35:29.272Z,30.60
2022-12-17T07:36:29.295Z,26.00
2022-12-17T07:37:29.236Z,28.00
2022-12-17T07:38:29.239Z,28.30
2022-12-17T07:39:29.256Z,26.00
2022-12-17T07:40:29.243Z,31.50
2022-12-17T07:41:29.265Z,25.50
2022-12-17T07:42:29.245Z,24.80
2022-12-17T07:43:29.221Z,30.90
2022-12-17T07:44:29.231Z,26.00
2022-12-17T07:45:29.370Z,26.80
2022-12-17T07:46:29.345Z,32.40
2022-12-17T07:47:29.392Z,26.80
2022-12-17T07:48:29.199Z,28.40
2022-12-17T07:49:29.201Z,29.40
2022-12-17T07:50:29.182Z,25.70
2022-12-17T07:51:29.172Z,32.60
2022-12-17T07:52:29.211Z,25.60
2022-12-17T07:53:29.150Z,31.90
2022-12-17T07:54:29.180Z,27.90
2022-12-17T07:55:29.149Z,26.30
2022-12-17T07:56:29.139Z,32.60
2022-12-17T07:57:29.488Z,27.50
2022-12-17T07:58:29.142Z,33.10
2022-12-17T07:59:29.500Z,27.60
2022-12-17T08:00:29.133Z,26.90
2022-12-17T08:01:29.205Z,34.70
2022-12-17T08:02:29.408Z,27.20
2022-12-17T08:03:29.134Z,33.40
2022-12-17T08:04:29.094Z,26.20
2022-12-17T08:05:29.107Z,32.90
2022-12-17T08:06:29.105Z,31.00
2022-12-17T08:07:29.073Z,26.50
2022-12-17T08:08:29.123Z,34.70
2022-12-17T08:09:29.064Z,28.00
2022-12-17T08:10:29.112Z,34.10
2022-12-17T08:11:29.053Z,25.90
2022-12-17T08:12:29.146Z,27.40
2022-12-17T08:13:29.050Z,31.60
2022-12-17T08:14:29.052Z,26.00
2022-12-17T08:15:29.100Z,31.10
2022-12-17T08:16:29.191Z,27.90
2022-12-17T08:17:29.151Z,25.10
2022-12-17T08:18:29.158Z,31.10
2022-12-17T08:19:29.011Z,24.70
2022-12-17T08:20:29.018Z,31.30
2022-12-17T08:21:29.002Z,26.40
2022-12-17T08:22:29.041Z,23.80
2022-12-17T08:23:28.994Z,31.60
2022-12-17T08:24:28.991Z,23.60
2022-12-17T08:25:29.007Z,31.70
2022-12-17T08:26:28.996Z,26.40
2022-12-17T08:27:29.028Z,27.70
2022-12-17T08:29:28.955Z,23.90
2022-12-17T08:30:29.002Z,31.70
2022-12-17T08:31:29.455Z,24.80
2022-12-17T08:32:28.948Z,29.80
2022-12-17T08:33:28.931Z,26.80
2022-12-17T08:34:28.931Z,28.30
2022-12-17T08:35:28.933Z,26.90
2022-12-17T08:36:28.925Z,26.10
2022-12-17T08:37:28.929Z,30.20
2022-12-17T08:38:28.913Z,24.20
2022-12-17T08:39:29.500Z,30.30
2022-12-17T08:40:28.919Z,24.60
2022-12-17T08:41:28.912Z,26.20
2022-12-17T08:42:28.929Z,28.10
2022-12-17T08:43:28.887Z,26.10
2022-12-17T08:44:28.868Z,30.10
2022-12-17T08:45:28.890Z,24.00
2022-12-17T08:46:28.949Z,29.80
2022-12-17T08:47:28.860Z,28.60
2022-12-17T08:48:28.877Z,25.40
2022-12-17T08:49:28.848Z,31.50
2022-12-17T08:50:28.864Z,25.00
2022-12-17T08:51:28.856Z,30.10
2022-12-17T08:52:29.405Z,23.80
2022-12-17T08:53:34.571Z,29.50
2022-12-17T08:54:28.823Z,26.80
2022-12-17T08:55:28.825Z,26.40
2022-12-17T08:56:29.014Z,29.30
2022-12-17T08:57:32.568Z,23.50
2022-12-17T08:58:29.013Z,30.20
2022-12-17T08:59:29.012Z,25.60
2022-12-17T09:00:28.821Z,30.10
2022-12-17T09:01:28.857Z,29.30
2022-12-17T09:02:28.993Z,24.30
2022-12-17T09:03:28.863Z,30.70
2022-12-17T09:04:28.761Z,24.00
2022-12-17T09:05:28.769Z,28.80
2022-12-17T09:06:28.752Z,29.20
2022-12-17T09:07:28.758Z,24.60
2022-12-17T09:08:29.101Z,30.70
2022-12-17T09:09:29.689Z,26.00
2022-12-17T09:10:29.579Z,28.20
2022-12-17T09:11:28.726Z,28.90
2022-12-17T09:12:28.746Z,24.20
2022-12-17T09:13:29.537Z,28.40
2022-12-17T09:14:29.715Z,23.60
2022-12-17T09:15:28.714Z,29.10
2022-12-17T09:16:28.715Z,25.00
2022-12-17T09:17:28.693Z,28.80
2022-12-17T09:18:28.683Z,25.80
2022-12-17T09:19:28.683Z,29.90
2022-12-17T09:20:29.947Z,27.40
2022-12-17T09:21:28.662Z,24.90
2022-12-17T09:22:28.663Z,30.70
2022-12-17T09:23:28.682Z,24.00
2022-12-17T09:24:28.651Z,28.50
2022-12-17T09:25:28.651Z,24.40
2022-12-17T09:26:28.659Z,28.10
2022-12-17T09:27:29.481Z,28.50
2022-12-17T09:28:28.630Z,23.50
2022-12-17T09:29:28.797Z,29.10
2022-12-17T09:30:28.691Z,26.10
2022-12-17T09:31:33.846Z,28.00
2022-12-17T09:32:28.658Z,29.50
2022-12-17T09:33:28.627Z,24.40
2022-12-17T09:34:28.637Z,30.30
2022-12-17T09:35:28.595Z,25.70
2022-12-17T09:36:28.597Z,29.90
2022-12-17T09:37:28.586Z,24.30
2022-12-17T09:38:28.573Z,31.40
2022-12-17T09:39:28.662Z,24.90
2022-12-17T09:40:28.561Z,29.60
2022-12-17T09:41:28.564Z,26.20
2022-12-17T09:42:28.573Z,29.30
2022-12-17T09:43:28.541Z,28.30
2022-12-17T09:44:28.542Z,27.50
2022-12-17T09:45:28.534Z,30.90
2022-12-17T09:46:28.727Z,25.00
2022-12-17T09:47:28.520Z,31.50
2022-12-17T09:48:32.390Z,25.00
2022-12-17T09:49:28.511Z,30.10
2022-12-17T09:50:28.501Z,29.90
2022-12-17T09:51:28.509Z,28.90
2022-12-17T09:52:28.490Z,29.50
2022-12-17T09:53:28.479Z,29.20
2022-12-17T09:54:28.477Z,32.00
2022-12-17T09:55:28.478Z,28.10
2022-12-17T09:56:28.517Z,31.50
2022-12-17T09:57:28.499Z,26.30
2022-12-17T09:58:28.459Z,32.80
2022-12-17T09:59:28.475Z,28.30
2022-12-17T10:00:29.006Z,32.70
2022-12-17T10:01:28.526Z,33.00
2022-12-17T10:02:28.619Z,27.20
2022-12-17T10:03:28.480Z,33.40
2022-12-17T10:04:28.445Z,29.00
2022-12-17T10:05:28.413Z,31.50
2022-12-17T10:06:28.438Z,29.10
2022-12-17T10:07:28.463Z,30.70
2022-12-17T10:08:28.403Z,32.70
2022-12-17T10:09:28.422Z,26.70
2022-12-17T10:10:28.391Z,32.60
2022-12-17T10:11:34.168Z,28.60
2022-12-17T10:12:28.402Z,31.30
2022-12-17T10:13:28.371Z,32.70
2022-12-17T10:14:28.370Z,25.50
2022-12-17T10:15:28.461Z,32.80
2022-12-17T10:16:28.379Z,32.70
2022-12-17T10:17:28.357Z,26.30
2022-12-17T10:18:28.908Z,31.00
2022-12-17T10:19:29.139Z,31.50
2022-12-17T10:20:28.338Z,31.40
2022-12-17T10:21:29.136Z,34.30
2022-12-17T10:22:28.337Z,28.00
2022-12-17T10:23:28.321Z,33.60
2022-12-17T10:24:28.348Z,30.60
2022-12-17T10:25:28.325Z,31.90
2022-12-17T10:26:28.304Z,33.30
2022-12-17T10:27:28.404Z,26.90
2022-12-17T10:28:28.575Z,31.80
2022-12-17T10:29:28.584Z,32.80
2022-12-17T10:30:28.302Z,25.10
2022-12-17T10:31:28.336Z,31.50
2022-12-17T10:32:28.813Z,31.10
2022-12-17T10:33:28.260Z,27.30
2022-12-17T10:34:28.252Z,32.10
2022-12-17T10:35:28.243Z,31.60
2022-12-17T10:36:28.241Z,33.00
2022-12-17T10:37:28.242Z,25.20
2022-12-17T10:38:28.231Z,31.60
2022-12-17T10:39:28.222Z,31.50
2022-12-17T10:40:28.229Z,32.30
2022-12-17T10:41:28.233Z,28.90
2022-12-17T10:42:32.960Z,33.20
2022-12-17T10:43:28.207Z,32.30
2022-12-17T10:44:28.319Z,31.90
2022-12-17T10:45:28.308Z,30.30
2022-12-17T10:46:28.327Z,29.70
2022-12-17T10:47:28.486Z,31.00
2022-12-17T10:48:28.495Z,26.30
2022-12-17T10:49:28.267Z,29.70
2022-12-17T10:50:28.548Z,28.30
2022-12-17T10:51:28.614Z,27.30
2022-12-17T10:52:28.363Z,27.90
2022-12-17T10:53:28.655Z,25.40
2022-12-17T10:54:28.371Z,24.80
2022-12-17T10:55:28.633Z,25.80
2022-12-17T10:56:28.272Z,27.00
2022-12-17T10:57:28.243Z,25.40
2022-12-17T10:58:28.180Z,26.90
2022-12-17T10:59:28.400Z,22.10
2022-12-17T11:00:28.982Z,24.90
2022-12-17T11:01:28.253Z,26.60
2022-12-17T11:02:28.657Z,25.20
2022-12-17T11:03:28.453Z,27.10
2022-12-17T11:04:28.731Z,28.30
2022-12-17T11:05:28.698Z,21.00
2022-12-17T11:06:28.448Z,26.80
2022-12-17T11:07:29.072Z,27.30
2022-12-17T11:08:28.999Z,27.50
2022-12-17T11:09:28.914Z,25.50
2022-12-17T11:10:28.480Z,26.30
2022-12-17T11:11:28.898Z,23.50
2022-12-17T11:12:30.761Z,25.80
2022-12-17T11:13:28.095Z,24.00
2022-12-17T11:14:28.083Z,24.00
2022-12-17T11:15:28.128Z,24.10
2022-12-17T11:16:28.104Z,25.10
2022-12-17T11:17:28.277Z,20.30
2022-12-17T11:18:28.284Z,24.40
2022-12-17T11:19:28.087Z,24.90
2022-12-17T11:20:28.083Z,26.20
2022-12-17T11:21:28.045Z,26.10
2022-12-17T11:22:28.093Z,24.00
2022-12-17T11:23:28.105Z,24.20
2022-12-17T11:24:28.110Z,26.60
2022-12-17T11:25:27.991Z,27.20
2022-12-17T11:26:28.181Z,26.90
2022-12-17T11:27:28.331Z,27.50
2022-12-17T11:28:28.341Z,22.90
2022-12-17T11:29:27.990Z,26.90
2022-12-17T11:30:30.915Z,27.30
2022-12-17T11:31:28.371Z,26.90
2022-12-17T11:32:28.569Z,28.60
2022-12-17T11:33:27.958Z,22.80
2022-12-17T11:34:27.968Z,26.90
2022-12-17T11:35:28.388Z,26.40
2022-12-17T11:36:35.156Z,28.50
2022-12-17T11:37:28.047Z,28.50
2022-12-17T11:38:28.027Z,22.60
2022-12-17T11:39:28.216Z,26.70
2022-12-17T11:40:28.008Z,28.70
2022-12-17T11:41:28.438Z,28.30
2022-12-17T11:42:28.439Z,28.70
2022-12-17T11:43:28.084Z,22.40
2022-12-17T11:44:27.863Z,27.30
2022-12-17T11:45:28.722Z,27.50
2022-12-17T11:46:28.511Z,29.60
2022-12-17T11:47:28.675Z,28.80
2022-12-17T11:48:28.053Z,23.10
2022-12-17T11:49:28.062Z,27.60
2022-12-17T11:50:28.801Z,28.70
2022-12-17T11:51:27.851Z,29.50
2022-12-17T11:52:27.883Z,26.10
2022-12-17T11:53:28.476Z,27.80
2022-12-17T11:54:28.107Z,29.10
2022-12-17T11:55:28.112Z,28.90
2022-12-17T11:56:28.121Z,25.90
2022-12-17T11:57:28.134Z,28.40
2022-12-17T11:58:27.815Z,28.40
2022-12-17T11:59:28.348Z,29.40
2022-12-17T12:00:27.930Z,31.00
2022-12-17T12:01:27.855Z,22.00
2022-12-17T12:02:27.997Z,26.20
2022-12-17T12:03:27.955Z,27.70
2022-12-17T12:04:27.788Z,28.80
2022-12-17T12:05:27.841Z,28.20
2022-12-17T12:06:27.863Z,24.10
2022-12-17T12:07:27.996Z,28.80
2022-12-17T12:08:27.794Z,27.80
2022-12-17T12:09:27.784Z,29.10
2022-12-17T12:10:27.697Z,22.40
2022-12-17T12:11:31.509Z,28.10
2022-12-17T12:12:27.734Z,27.80
2022-12-17T12:13:27.683Z,28.30
2022-12-17T12:14:27.670Z,26.70
2022-12-17T12:15:27.668Z,27.70
2022-12-17T12:16:27.771Z,27.40
2022-12-17T12:17:27.738Z,29.20
2022-12-17T12:18:27.651Z,24.80
2022-12-17T12:19:27.642Z,26.40
2022-12-17T12:20:27.629Z,27.40
2022-12-17T12:21:27.630Z,29.00
2022-12-17T12:22:30.770Z,26.30
2022-12-17T12:23:27.808Z,26.10
2022-12-17T12:24:27.649Z,28.30
2022-12-17T12:25:27.632Z,28.70
2022-12-17T12:26:27.599Z,28.40
2022-12-17T12:27:27.617Z,23.40
2022-12-17T12:28:27.624Z,28.00
2022-12-17T12:29:27.586Z,29.30
2022-12-17T12:30:27.896Z,27.50
2022-12-17T12:31:27.657Z,29.00
2022-12-17T12:32:27.565Z,24.30
2022-12-17T12:33:27.935Z,26.40
2022-12-17T12:34:27.551Z,27.50
2022-12-17T12:35:27.555Z,28.30
2022-12-17T12:36:27.634Z,27.20
2022-12-17T12:37:27.545Z,26.50
2022-12-17T12:38:27.562Z,27.60
2022-12-17T12:39:27.524Z,22.30
2022-12-17T12:40:27.513Z,26.40
2022-12-17T12:41:27.573Z,27.40
2022-12-17T12:42:27.521Z,26.40
2022-12-17T12:43:27.514Z,27.00
2022-12-17T12:44:27.499Z,25.10
2022-12-17T12:45:27.585Z,24.60
2022-12-17T12:46:27.472Z,26.30
2022-12-17T12:47:27.470Z,27.00
2022-12-17T12:48:27.470Z,26.70
2022-12-17T12:49:27.522Z,27.80
2022-12-17T12:50:27.449Z,22.40
2022-12-17T12:51:32.317Z,24.80
2022-12-17T12:52:27.447Z,27.40
2022-12-17T12:53:27.456Z,28.30
2022-12-17T12:54:27.428Z,27.90